createdAt,value
2019-01-18T00:00:32.833Z,1.60
2019-01-18T00:03:03.408Z,1.73
2019-01-18T00:05:33.987Z,1.33
2019-01-18T00:08:05.059Z,1.50
2019-01-18T00:10:35.595Z,1.57
2019-01-18T00:13:06.372Z,1.60
2019-01-18T00:15:36.969Z,1.30
2019-01-18T00:18:07.492Z,1.50
2019-01-18T00:20:38.112Z,1.10
2019-01-18T00:23:08.771Z,1.40
2019-01-18T00:25:39.326Z,1.10
2019-01-18T00:28:09.940Z,1.20
2019-01-18T00:30:40.520Z,1.37
2019-01-18T00:33:11.042Z,1.00
2019-01-18T00:35:41.618Z,0.90
2019-01-18T00:38:12.197Z,1.20
2019-01-18T00:40:42.827Z,1.10
2019-01-18T00:43:13.429Z,0.90
2019-01-18T00:45:43.925Z,1.20
2019-01-18T00:48:14.468Z,1.17
2019-01-18T00:50:45.021Z,1.27
2019-01-18T00:53:15.619Z,1.43
2019-01-18T00:55:46.171Z,1.10
2019-01-18T00:58:16.782Z,1.10
2019-01-18T01:00:47.327Z,0.97
2019-01-18T01:03:17.877Z,1.10
2019-01-18T01:05:48.514Z,1.47
2019-01-18T01:08:19.049Z,1.23
2019-01-18T01:10:49.880Z,1.30
2019-01-18T01:13:20.525Z,1.13
2019-01-18T01:15:51.210Z,1.07
2019-01-18T01:18:21.948Z,1.40
2019-01-18T01:20:52.649Z,1.10
2019-01-18T01:23:23.163Z,1.10
2019-01-18T01:25:53.861Z,1.00
2019-01-18T01:28:24.402Z,1.30
2019-01-18T01:30:54.987Z,1.25
2019-01-18T01:33:25.540Z,1.03
2019-01-18T01:35:56.184Z,1.50
2019-01-18T01:38:26.712Z,1.40
2019-01-18T01:40:57.271Z,1.37
2019-01-18T01:43:27.791Z,1.20
2019-01-18T01:45:58.351Z,1.20
2019-01-18T01:48:28.951Z,1.43
2019-01-18T01:50:59.490Z,1.20
2019-01-18T01:53:30.056Z,1.40
2019-01-18T01:56:00.618Z,1.13
2019-01-18T01:58:31.127Z,1.17
2019-01-18T02:01:01.715Z,1.10
2019-01-18T02:03:32.223Z,1.20
2019-01-18T02:06:02.768Z,1.20
2019-01-18T02:08:33.335Z,1.37
2019-01-18T02:11:03.953Z,1.30
2019-01-18T02:13:34.555Z,1.10
2019-01-18T02:16:05.210Z,1.20
2019-01-18T02:18:35.733Z,1.50
2019-01-18T02:21:06.317Z,1.22
2019-01-18T02:23:36.874Z,1.40
2019-01-18T02:26:07.412Z,1.40
2019-01-18T02:28:37.974Z,1.10
2019-01-18T02:31:08.607Z,0.80
2019-01-18T02:33:39.152Z,1.07
2019-01-18T02:36:09.787Z,1.00
2019-01-18T02:38:40.381Z,1.17
2019-01-18T02:41:10.945Z,1.10
2019-01-18T02:43:41.486Z,1.00
2019-01-18T02:46:12.030Z,1.30
2019-01-18T02:48:42.620Z,0.90
2019-01-18T02:51:13.201Z,0.83
2019-01-18T02:53:43.761Z,1.17
2019-01-18T02:56:14.313Z,1.07
2019-01-18T02:58:44.891Z,0.80
2019-01-18T03:01:15.405Z,0.93
2019-01-18T03:03:46.009Z,1.27
2019-01-18T03:06:16.548Z,1.13
2019-01-18T03:08:47.108Z,0.90
2019-01-18T03:11:17.688Z,1.13
2019-01-18T03:13:48.211Z,1.20
2019-01-18T03:16:18.797Z,0.93
2019-01-18T03:18:49.344Z,1.20
2019-01-18T03:21:19.960Z,1.27
2019-01-18T03:23:50.487Z,1.33
2019-01-18T03:26:21.040Z,1.00
2019-01-18T03:28:51.707Z,1.30
2019-01-18T03:31:22.271Z,1.13
2019-01-18T03:33:53.264Z,1.00
2019-01-18T03:36:23.854Z,0.90
2019-01-18T03:38:54.383Z,0.93
2019-01-18T03:41:24.955Z,1.27
2019-01-18T03:43:55.485Z,1.20
2019-01-18T03:46:26.055Z,1.10
2019-01-18T03:48:56.577Z,1.07
2019-01-18T03:51:27.172Z,1.10
2019-01-18T03:53:57.728Z,1.00
2019-01-18T03:56:28.266Z,1.20
2019-01-18T03:58:58.837Z,1.10
2019-01-18T04:01:29.403Z,1.53
2019-01-18T04:03:59.929Z,1.20
2019-01-18T04:06:30.537Z,1.00
2019-01-18T04:09:01.130Z,1.17
2019-01-18T04:11:31.712Z,1.10
2019-01-18T04:14:02.341Z,1.10
2019-01-18T04:16:33.187Z,1.37
2019-01-18T04:19:03.758Z,1.30
2019-01-18T04:21:34.278Z,1.50
2019-01-18T04:24:04.820Z,1.13
2019-01-18T04:26:35.377Z,1.50
2019-01-18T04:29:05.989Z,1.23
2019-01-18T04:31:36.542Z,1.20
2019-01-18T04:34:07.147Z,1.03
2019-01-18T04:36:37.695Z,1.20
2019-01-18T04:39:08.982Z,1.30
2019-01-18T04:41:39.532Z,1.30
2019-01-18T04:44:10.113Z,1.27
2019-01-18T04:46:40.640Z,1.22
2019-01-18T04:49:11.173Z,1.10
2019-01-18T04:51:41.782Z,1.63
2019-01-18T04:54:12.302Z,1.50
2019-01-18T04:56:42.851Z,1.50
2019-01-18T04:59:13.419Z,2.20
2019-01-18T05:01:43.944Z,1.63
2019-01-18T05:04:14.835Z,1.50
2019-01-18T05:06:45.419Z,1.17
2019-01-18T05:09:15.932Z,1.40
2019-01-18T05:11:46.480Z,1.17
2019-01-18T05:14:17.055Z,1.50
2019-01-18T05:16:47.679Z,1.43
2019-01-18T05:19:18.211Z,1.40
2019-01-18T05:21:48.714Z,1.83
2019-01-18T05:24:19.623Z,1.20
2019-01-18T05:26:50.168Z,1.40
2019-01-18T05:29:20.705Z,1.40
2019-01-18T05:31:51.270Z,1.63
2019-01-18T05:34:21.881Z,1.50
2019-01-18T05:36:52.689Z,1.60
2019-01-18T05:39:23.205Z,1.20
2019-01-18T05:41:53.907Z,1.40
2019-01-18T05:44:24.495Z,1.37
2019-01-18T05:46:55.054Z,1.63
2019-01-18T05:49:25.610Z,1.50
2019-01-18T05:51:56.183Z,1.40
2019-01-18T05:54:29.831Z,1.20
2019-01-18T05:57:00.481Z,1.53
2019-01-18T05:59:31.024Z,1.63
2019-01-18T06:02:01.645Z,1.47
2019-01-18T06:04:32.159Z,1.63
2019-01-18T06:07:02.717Z,1.67
2019-01-18T06:09:33.286Z,1.70
2019-01-18T06:12:03.912Z,1.60
2019-01-18T06:14:34.473Z,1.70
2019-01-18T06:17:05.136Z,1.67
2019-01-18T06:19:35.742Z,2.50
2019-01-18T06:22:06.299Z,2.07
2019-01-18T06:24:36.874Z,2.77
2019-01-18T06:27:07.480Z,2.97
2019-01-18T06:29:38.041Z,2.37
2019-01-18T06:32:08.636Z,2.13
2019-01-18T06:34:39.218Z,2.47
2019-01-18T06:37:09.812Z,1.70
2019-01-18T06:39:40.434Z,1.73
2019-01-18T06:42:10.998Z,1.83
2019-01-18T06:44:41.539Z,1.70
2019-01-18T06:47:12.122Z,1.93
2019-01-18T06:49:42.678Z,1.67
2019-01-18T06:52:13.283Z,2.00
2019-01-18T06:54:43.818Z,1.47
2019-01-18T06:57:14.413Z,1.77
2019-01-18T06:59:44.967Z,2.07
2019-01-18T07:02:15.508Z,1.83
2019-01-18T07:04:46.148Z,2.03
2019-01-18T07:07:16.756Z,2.43
2019-01-18T07:09:47.303Z,1.70
2019-01-18T07:12:17.884Z,2.03
2019-01-18T07:14:48.458Z,1.70
2019-01-18T07:17:19.063Z,2.00
2019-01-18T07:19:50.501Z,1.95
2019-01-18T07:22:21.076Z,2.00
2019-01-18T07:24:51.719Z,2.17
2019-01-18T07:27:23.620Z,1.90
2019-01-18T07:29:54.148Z,2.30
2019-01-18T07:32:24.685Z,2.17
2019-01-18T07:34:55.249Z,2.17
2019-01-18T07:37:25.762Z,2.10
2019-01-18T07:39:56.329Z,2.20
2019-01-18T07:42:26.904Z,2.40
2019-01-18T07:44:57.477Z,2.85
2019-01-18T07:47:28.036Z,2.53
2019-01-18T07:49:58.628Z,2.27
2019-01-18T07:52:29.328Z,2.40
2019-01-18T07:54:59.980Z,2.37
2019-01-18T07:57:30.537Z,2.83
2019-01-18T08:00:01.068Z,2.25
2019-01-18T08:02:31.655Z,3.37
2019-01-18T08:05:02.247Z,2.80
2019-01-18T08:07:32.858Z,3.03
2019-01-18T08:10:03.585Z,3.60
2019-01-18T08:12:34.212Z,3.80
2019-01-18T08:15:05.561Z,3.70
2019-01-18T08:17:36.119Z,3.40
2019-01-18T08:20:10.726Z,3.03
2019-01-18T08:22:41.356Z,3.27
2019-01-18T08:25:13.590Z,3.40
2019-01-18T08:27:44.270Z,3.17
2019-01-18T08:30:18.644Z,3.07
2019-01-18T08:32:49.186Z,2.90
2019-01-18T08:35:23.217Z,3.27
2019-01-18T08:37:53.794Z,3.23
2019-01-18T08:40:31.009Z,3.43
2019-01-18T08:43:01.572Z,3.20
2019-01-18T08:45:39.701Z,3.00
2019-01-18T08:48:10.512Z,3.00
2019-01-18T08:50:41.558Z,3.40
2019-01-18T08:53:12.085Z,3.33
2019-01-18T08:55:42.655Z,4.00
2019-01-18T08:58:13.185Z,3.97
2019-01-18T09:00:43.804Z,3.43
2019-01-18T09:03:14.377Z,2.87
2019-01-18T09:05:44.889Z,3.17
2019-01-18T09:08:15.459Z,4.40
2019-01-18T09:10:46.631Z,4.53
2019-01-18T09:13:18.430Z,3.93
2019-01-18T09:15:49.052Z,3.47
2019-01-18T09:18:19.599Z,4.00
2019-01-18T09:20:50.190Z,6.40
2019-01-18T09:23:20.867Z,4.10
2019-01-18T09:25:51.518Z,3.80
2019-01-18T09:28:22.089Z,3.60
2019-01-18T09:30:52.744Z,3.10
2019-01-18T09:33:23.337Z,3.10
2019-01-18T09:35:53.945Z,3.40
2019-01-18T09:38:24.601Z,3.63
2019-01-18T09:40:55.172Z,3.87
2019-01-18T09:43:25.731Z,3.43
2019-01-18T09:45:56.298Z,5.17
2019-01-18T09:48:26.912Z,4.40
2019-01-18T09:50:57.439Z,4.50
2019-01-18T09:53:28.046Z,4.27
2019-01-18T09:55:58.555Z,5.03
2019-01-18T09:58:29.141Z,5.00
2019-01-18T10:00:59.728Z,4.83
2019-01-18T10:03:30.303Z,5.10
2019-01-18T10:06:00.844Z,4.90
2019-01-18T10:08:31.438Z,4.43
2019-01-18T10:11:01.976Z,3.77
2019-01-18T10:13:32.550Z,4.07
2019-01-18T10:16:03.110Z,3.87
2019-01-18T10:18:33.661Z,4.13
2019-01-18T10:21:04.355Z,4.03
2019-01-18T10:23:34.925Z,4.63
2019-01-18T10:26:06.006Z,4.90
2019-01-18T10:28:36.636Z,4.83
2019-01-18T10:31:07.370Z,5.17
2019-01-18T10:33:37.928Z,4.80
2019-01-18T10:36:08.552Z,4.43
2019-01-18T10:38:39.110Z,4.57
2019-01-18T10:41:09.704Z,5.10
2019-01-18T10:43:40.316Z,4.87
2019-01-18T10:46:10.932Z,5.00
2019-01-18T10:48:41.501Z,4.53
2019-01-18T10:51:12.142Z,5.10
2019-01-18T10:53:42.992Z,5.33
2019-01-18T10:56:13.567Z,5.20
2019-01-18T10:58:44.205Z,5.77
2019-01-18T11:01:14.805Z,5.87
2019-01-18T11:03:45.400Z,6.07
2019-01-18T11:06:15.991Z,5.43
2019-01-18T11:08:46.606Z,6.43
2019-01-18T11:11:17.171Z,7.60
2019-01-18T11:13:47.800Z,7.10
2019-01-18T11:16:18.388Z,7.03
2019-01-18T11:18:50.987Z,7.03
2019-01-18T11:21:23.768Z,7.33
2019-01-18T11:23:54.318Z,6.87
2019-01-18T11:26:24.923Z,6.23
2019-01-18T11:28:55.554Z,6.83
2019-01-18T11:31:26.126Z,6.73
2019-01-18T11:33:56.683Z,6.03
2019-01-18T11:36:27.444Z,5.27
2019-01-18T11:38:58.013Z,5.63
2019-01-18T11:41:28.763Z,6.03
2019-01-18T11:43:59.437Z,5.63
2019-01-18T11:46:30.011Z,5.80
2019-01-18T11:49:00.605Z,5.27
2019-01-18T11:51:33.877Z,5.07
2019-01-18T11:54:05.093Z,6.00
2019-01-18T11:56:35.647Z,5.63
2019-01-18T11:59:06.236Z,5.97
2019-01-18T12:01:36.838Z,6.10
2019-01-18T12:04:07.455Z,6.20
2019-01-18T12:06:38.227Z,6.63
2019-01-18T12:09:09.857Z,6.30
2019-01-18T12:11:40.550Z,6.73
2019-01-18T12:14:11.076Z,8.00
2019-01-18T12:16:41.664Z,7.40
2019-01-18T12:19:12.314Z,7.30
2019-01-18T12:21:43.042Z,7.13
2019-01-18T12:24:13.783Z,7.00
2019-01-18T12:26:44.442Z,6.63
2019-01-18T12:29:14.986Z,6.87
2019-01-18T12:31:46.831Z,6.87
2019-01-18T12:34:17.394Z,5.70
2019-01-18T12:36:47.966Z,6.27
2019-01-18T12:39:18.588Z,6.30
2019-01-18T12:41:49.183Z,6.37
2019-01-18T12:44:19.841Z,6.93
2019-01-18T12:46:50.494Z,6.77
2019-01-18T12:49:21.006Z,7.30
2019-01-18T12:51:51.661Z,5.67
2019-01-18T12:54:22.269Z,5.97
2019-01-18T12:56:52.939Z,5.93
2019-01-18T12:59:24.209Z,5.70
2019-01-18T13:01:54.803Z,5.47
2019-01-18T13:04:25.413Z,4.93
2019-01-18T13:06:55.997Z,4.30
2019-01-18T13:09:26.580Z,4.70
2019-01-18T13:11:57.140Z,4.70
2019-01-18T13:14:27.821Z,5.10
2019-01-18T13:16:58.472Z,5.07
2019-01-18T13:19:28.989Z,4.53
2019-01-18T13:21:59.605Z,4.50
2019-01-18T13:24:33.898Z,5.33
2019-01-18T13:27:04.610Z,5.27
2019-01-18T13:29:35.125Z,5.77
2019-01-18T13:32:05.737Z,5.37
2019-01-18T13:34:36.326Z,6.00
2019-01-18T13:37:06.943Z,7.40
2019-01-18T13:39:38.252Z,6.10
2019-01-18T13:42:08.825Z,6.87
2019-01-18T13:44:43.666Z,6.43
2019-01-18T13:47:18.204Z,5.97
2019-01-18T13:49:45.236Z,6.27
2019-01-18T13:52:15.792Z,6.60
2019-01-18T13:54:46.362Z,5.50
2019-01-18T13:57:16.908Z,5.60
2019-01-18T13:59:47.480Z,5.90
2019-01-18T14:02:18.074Z,6.03
2019-01-18T14:04:48.603Z,5.67
2019-01-18T14:07:19.201Z,4.73
2019-01-18T14:09:49.854Z,4.50
2019-01-18T14:12:20.416Z,4.40
2019-01-18T14:14:51.352Z,4.33
2019-01-18T14:17:21.955Z,5.03
2019-01-18T14:19:54.684Z,4.57
2019-01-18T14:22:25.211Z,5.27
2019-01-18T14:24:55.820Z,5.80
2019-01-18T14:27:26.341Z,5.07
2019-01-18T14:29:56.951Z,5.47
2019-01-18T14:32:27.643Z,4.53
2019-01-18T14:34:58.268Z,3.90
2019-01-18T14:37:28.812Z,4.10
2019-01-18T14:39:59.389Z,4.57
2019-01-18T14:42:29.962Z,4.00
2019-01-18T14:45:00.568Z,4.33
2019-01-18T14:47:31.153Z,4.57
2019-01-18T14:50:01.727Z,4.70
2019-01-18T14:52:32.294Z,3.43
2019-01-18T14:55:02.895Z,4.00
2019-01-18T14:57:33.441Z,3.43
2019-01-18T15:00:05.927Z,3.40
2019-01-18T15:02:36.481Z,3.50
2019-01-18T15:05:09.012Z,3.73
2019-01-18T15:07:39.642Z,3.63
2019-01-18T15:10:14.041Z,3.77
2019-01-18T15:12:44.948Z,3.83
2019-01-18T15:15:16.529Z,4.57
2019-01-18T15:17:47.361Z,4.90
2019-01-18T15:20:22.226Z,5.17
2019-01-18T15:22:53.068Z,5.47
2019-01-18T15:25:23.852Z,5.30
2019-01-18T15:27:54.502Z,5.03
2019-01-18T15:30:28.146Z,5.37
2019-01-18T15:32:58.875Z,4.87
2019-01-18T15:35:37.860Z,4.60
2019-01-18T15:38:10.983Z,5.73
2019-01-18T15:40:46.089Z,12.93
2019-01-18T15:43:19.074Z,6.70
2019-01-18T15:45:49.754Z,5.43
2019-01-18T15:48:20.303Z,6.13
2019-01-18T15:50:50.990Z,5.17
2019-01-18T15:53:21.743Z,4.90
2019-01-18T15:55:52.477Z,4.43
2019-01-18T15:58:23.166Z,4.00
2019-01-18T16:00:58.439Z,3.80
2019-01-18T16:03:31.869Z,3.87
2019-01-18T16:06:36.212Z,3.70
2019-01-18T16:09:09.635Z,6.67
2019-01-18T16:11:41.695Z,5.07
2019-01-18T16:17:28.057Z,5.13
2019-01-18T16:20:40.463Z,4.47
2019-01-18T16:23:12.545Z,3.97
2019-01-18T16:25:43.116Z,4.13
2019-01-18T16:28:13.759Z,3.00
2019-01-18T16:30:44.420Z,3.20
2019-01-18T16:33:14.996Z,4.13
2019-01-18T16:35:45.590Z,3.77
2019-01-18T16:38:17.219Z,3.70
2019-01-18T16:40:47.784Z,4.13
2019-01-18T16:43:25.969Z,3.13
2019-01-18T16:45:56.649Z,3.53
2019-01-18T16:48:27.228Z,3.50
2019-01-18T16:50:57.957Z,3.37
2019-01-18T16:53:28.509Z,3.27
2019-01-18T16:55:59.147Z,3.23
2019-01-18T16:58:29.741Z,3.50
2019-01-18T17:01:02.698Z,3.63
2019-01-18T17:03:35.440Z,3.30
2019-01-18T17:06:06.889Z,3.37
2019-01-18T17:08:37.486Z,3.20
2019-01-18T17:11:08.110Z,4.07
2019-01-18T17:13:41.167Z,3.80
2019-01-18T17:16:11.762Z,4.17
2019-01-18T17:18:42.649Z,4.07
2019-01-18T17:21:13.196Z,4.07
2019-01-18T17:23:43.819Z,4.67
2019-01-18T17:26:14.373Z,4.27
2019-01-18T17:28:44.952Z,4.07
2019-01-18T17:31:15.485Z,4.27
2019-01-18T17:33:46.046Z,4.00
2019-01-18T17:36:36.254Z,4.20
2019-01-18T17:39:45.462Z,4.50
2019-01-18T17:43:48.927Z,4.97
2019-01-18T17:47:20.435Z,4.43
2019-01-18T17:50:18.179Z,4.40
2019-01-18T17:53:15.283Z,4.33
2019-01-18T17:56:33.983Z,4.30
2019-01-18T18:00:26.068Z,3.83
2019-01-18T18:04:02.608Z,3.97
2019-01-18T18:07:34.769Z,4.93
2019-01-18T18:10:43.225Z,4.40
2019-01-18T18:13:58.036Z,4.70
2019-01-18T18:17:27.709Z,4.30
2019-01-18T18:21:02.376Z,3.83
2019-01-18T18:24:14.767Z,4.00
2019-01-18T18:27:42.418Z,4.13
2019-01-18T18:30:36.564Z,3.80
2019-01-18T18:34:05.512Z,4.37
2019-01-18T18:37:05.890Z,4.13
2019-01-18T18:40:25.247Z,4.37
2019-01-18T18:44:09.087Z,4.33
2019-01-18T18:47:45.339Z,4.10
2019-01-18T18:50:49.065Z,3.87
2019-01-18T18:54:06.663Z,4.53
2019-01-18T18:57:19.984Z,4.63
2019-01-18T19:00:29.273Z,4.80
2019-01-18T19:04:03.811Z,5.03
2019-01-18T19:07:42.872Z,4.80
2019-01-18T19:11:09.831Z,5.07
2019-01-18T19:14:29.119Z,5.90
2019-01-18T19:18:05.420Z,6.63
2019-01-18T19:21:27.088Z,6.53
2019-01-18T19:24:36.016Z,7.13
2019-01-18T19:28:11.446Z,7.87
2019-01-18T19:31:19.555Z,7.17
2019-01-18T19:34:26.128Z,7.13
2019-01-18T19:38:09.457Z,7.20
2019-01-18T19:41:14.027Z,6.80
2019-01-18T19:44:22.480Z,8.03
2019-01-18T19:47:42.844Z,7.07
2019-01-18T19:50:59.909Z,6.93
2019-01-18T19:54:03.377Z,5.80
2019-01-18T19:57:21.171Z,5.27
2019-01-18T20:01:30.700Z,6.07
2019-01-18T20:04:40.432Z,5.60
2019-01-18T20:08:40.475Z,5.80
2019-01-18T20:12:06.236Z,5.93
2019-01-18T20:14:56.571Z,5.47
2019-01-18T20:18:33.595Z,5.50
2019-01-18T20:21:45.431Z,5.50
2019-01-18T20:25:31.092Z,5.53
2019-01-18T20:29:08.456Z,5.97
2019-01-18T20:32:36.675Z,4.93
2019-01-18T20:36:12.412Z,5.53
2019-01-18T20:39:41.861Z,5.37
2019-01-18T20:43:05.948Z,5.10
2019-01-18T20:46:17.443Z,5.27
2019-01-18T20:49:40.702Z,5.50
2019-01-18T22:12:15.224Z,4.63
2019-01-18T22:15:50.201Z,4.53
2019-01-18T22:19:05.602Z,4.60
2019-01-18T22:22:09.834Z,4.77
2019-01-18T22:26:10.411Z,4.57
2019-01-18T22:29:24.044Z,4.30
2019-01-18T22:32:50.232Z,5.27
2019-01-18T22:36:13.496Z,4.53
2019-01-18T22:39:51.751Z,5.27
2019-01-18T22:43:24.984Z,4.50
2019-01-18T22:46:44.549Z,5.20
2019-01-18T22:49:36.589Z,4.73
2019-01-18T22:52:58.234Z,5.40
2019-01-18T22:56:12.037Z,5.13
2019-01-18T22:59:39.929Z,4.97
2019-01-18T23:03:14.962Z,5.13
2019-01-18T23:06:13.811Z,4.63
2019-01-18T23:09:33.981Z,5.60
2019-01-18T23:12:44.349Z,5.77
2019-01-18T23:16:38.344Z,4.67
2019-01-18T23:20:15.801Z,5.50
2019-01-18T23:23:37.486Z,5.87
2019-01-18T23:27:17.663Z,6.03
2019-01-18T23:30:59.312Z,5.53
2019-01-18T23:34:17.293Z,5.67
2019-01-18T23:37:39.338Z,5.03
2019-01-18T23:40:58.945Z,5.90
2019-01-18T23:44:25.670Z,5.17
2019-01-18T23:47:42.945Z,5.23
2019-01-18T23:50:43.834Z,4.80
2019-01-18T23:54:03.841Z,5.47
2019-01-18T23:57:06.077Z,5.63
